Tropical Cyclones
[Index]
Season 2020-2021 Tropical Cyclone FARAJI Track Map
Season 2020-2021 Summaries (Operational Data): [AU] [SIO] [SPAC] [SH]
<<- Previous TC | 2020-2021 Season | Next TC ->>

click for intensity scale information  Lat/long Grid: Show Hide

 Date Labels: Show Hide

Operational Tropical Cyclone Data

Name: FARAJI
Number: 2119

04 Feb 2021 00:00 UTC to 16 Feb 2021 12:00 UTC

    date/time    lat    long     hPa   cat  kts
2021-02-04 00   10.5    80.1    1003         20          
2021-02-04 06   10.8    80.8    1003         20          
2021-02-04 12   11.2    81.3    1003         20          
2021-02-04 18   11.6    81.4    1006         20          
2021-02-05 00   12.1    81.4    1002         30          
2021-02-05 06   12.7    81.2    1001    1    35          
2021-02-05 12   13.1    80.7     999    1    40          
2021-02-05 18   13.3    80.4     996    1    45          
2021-02-06 00   13.8    80.1     993    1    45          
2021-02-06 06   14.0    79.8     988    2    55          
2021-02-06 12   14.3    79.8     979    2    60          
2021-02-06 18   14.7    79.6     978    3    65          
2021-02-07 00   14.9    79.6     960    4    90          
2021-02-07 06   14.9    79.8     944    4   100          
2021-02-07 12   14.8    79.9     946    4    95          
2021-02-07 18   14.6    80.2     945    4   100          
2021-02-08 00   14.3    80.9     948    4    95          
2021-02-08 06   14.2    81.5     938    4   105          
2021-02-08 12   14.2    82.0     923    5   120          
2021-02-08 18   14.2    82.5     920    5   125          
2021-02-09 00   14.1    83.0     923    5   120          
2021-02-09 06   14.0    83.5     930    5   115          
2021-02-09 12   14.3    84.3     940    4   105          
2021-02-09 18   14.7    84.6     951    4    95          
2021-02-10 00   15.0    84.8     962    3    85          
2021-02-10 06   15.2    85.0     962    3    85          
2021-02-10 12   15.5    85.3     964    3    80          
2021-02-10 18   15.8    85.3     964    3    80          
2021-02-11 00   16.1    85.0     960    3    85          
2021-02-11 06   16.4    84.6     962    3    85          
2021-02-11 12   16.6    84.3     966    3    80          
2021-02-11 18   17.4    83.7     975    3    70          
2021-02-12 00   18.0    83.2     975    3    70          
2021-02-12 06   18.3    82.3     984    2    60          
2021-02-12 12   18.5    81.5     988    2    55          
2021-02-12 18   18.8    81.1     996    1    45          
2021-02-13 00   19.1    80.7     996    1    40          
2021-02-13 06   19.4    80.3     998    1    40          
2021-02-13 12   19.6    79.8    1001    1    35          
2021-02-13 18   19.7    79.3    1001         30          
2021-02-14 00   20.1    78.4    1002         30          
2021-02-14 06   20.4    77.5    1007         25          
2021-02-14 12   20.1    76.1    1007         20          
2021-02-14 18   19.5    75.0    1006         20          
2021-02-15 00   19.7    73.9    1006         20          
2021-02-15 06   19.9    72.9    1009         20          
2021-02-15 12   19.7    71.5    1008         20          
2021-02-15 18   18.9    69.5    1007         20          
2021-02-16 00   18.4    68.3    1008         20          
2021-02-16 06   18.2    66.5    1008         20          
2021-02-16 12   18.1    65.1    1010         20          
Winds were reported as (or converted to) 10-min average.

Tropical cyclone tracks developed by Michael Bath using operational warnings and advisories and Google Maps.


Document: tropical_cyclone_faraji.htm
Updated: 7 May 2021
[Australian Severe Weather index] [Copyright Notice] [Email Contacts] [Search This Site] [Privacy Policy]


Main Index Home Page Stock Weather Photos Extreme Storms Discussion Storm News and Storm Chasing Reports Tropical Cyclones / Hurricanes / Typhoons Weather Data and Links Wild Fires / Bushfires Weather Observation Techniques Weather Picture Catalogue Tornado Pictures and Reports Stock Video Footage and DVDs for sale